メインページ
METAR-TAF:

METAR-TAF

空港 :

ホーチミン, ベトナム

タンソンニャット国際空港

緯度: 10-49N, 経度: 106-40E, 海抜: 19m

現時点の気象観測

当レポートは33分前の16:00(UTC)に作成
北西の風 3kt、西からの間で変化する
気温 25°C
湿度 94%
気圧 1008 hPa
視程10km以上
高度1700ftの雲はほとんどない
高度5000ftの雲は散在している

METAR: VVTS 221600Z 31003KT 260V350 9999 FEW017 SCT050 25/24 Q1008 NOSIG

時間: 23:33 (16:33 UTC)

予報

当レポートは5時間33分前の11:00(UTC)に作成
予報は22日の 12時(UTC)から 23日の 18時(UTC)まで有効
南西の風 10kt
視程10km以上
高度1500ftの雲は散在している
高度4000ftの雲は散在している
22日の 12時(UTC)から 22日の 14時(UTC)まで一時的に
視程: 5000m
高度1300ftの千切れ雲あり
高度1500ftの雲はほとんどない, 積乱雲.
激しい雷雨, 雨
23日の 05時(UTC)から 23日の 10時(UTC)まで一時的に
西/南西の風 15kt、最大25ktの突風を伴う
視程: 3000m
高度1300ftの千切れ雲あり
高度1500ftの雲は散在している, 積乱雲.
激しい雷雨, 雨

TAF: VVTS 221100Z 2212/2318 23010KT 9999 SCT015 SCT040 TEMPO 2212/2214 5000 TSRA BKN013 FEW015CB TEMPO 2305/2310 25015G25KT 3000 TSRA BKN013 SCT015CB

4,000以上の空港の気象観測と天気予報(METAR報とTAF報)

利用可能な観測所は地図上に黄色い丸と赤い丸で示す。

丸の上にカーソルを重ねると観測所名を参照できる。

次にクリックすると気象観測と天気予報を参照できる。

マップの切り替え:黒色「×」印の緑ボタンをクリックして拡大、「-」印の緑ボタンをクリックして縮小、緑色の三角印をクリックして隣りの地図に切り替え


METAR-TAF: